Terminal Aerodrome Forecast
Issued by NWS Flagstaff, AZ

Home | Current Version | Previous Version | Text Only | Print | Product List | Glossary On
Versions: 1 2 3 4 5 6 7 8 9 10 11 12 13 14 15 16 17 18 19 20
000
FTUS45 KFGZ 272300
TAFINW
TAF
KINW 272338Z 2800/2824 27006KT P6SM VCSH SCT080
     FM280100 VRB03KT P6SM FEW080
     FM281800 32008KT P6SM FEW100=

USA.gov is the U.S. government's official web portal to all federal, state and local government web resources and services.